UGKO/KIU METAR and TAF weather

Enter ICAO airport designator
Station Type Date Time Source
UGKO METAR 2019/08/19 22:30 UTC NOAA

UGKO 192230Z 24004KT 9999 BKN020 OVC042 22/21 Q1015 R07/29//55 NOSIG


Station Type Date Time Source
UGKO Decoded METAR 2019/08/19 22:30 UTC NOAA

Station name not available
Aug 19, 2019 - 06:30 PM EDT / 2019.08.19 2230 UTC
Wind: from the WSW (240 degrees) at 5 MPH (4 KT):0
Visibility: greater than 7 mile(s):0
Sky conditions: overcast
Temperature: 71 F (22 C)
Dew Point: 69 F (21 C)
Relative Humidity: 94%
Pressure (altimeter): 29.97 in. Hg (1015 hPa)
ob: UGKO 192230Z 24004KT 9999 BKN020 OVC042 22/21 Q1015 R07/29//55 NOSIG
cycle: 22

Station Type Date Time Source
UGKO TAF 2019/08/19 18:04 UTC NOAA

TAF UGKO 191700Z 1918/2018 VRB02KT 9999 SCT030 BKN045 TX29/2011Z TN19/2002Z
TEMPO 1918/1922 TSRA BKN020CB

Example: see airport list